sensor_id;sensor_type;location;lat;lon;timestamp;temperature;humidity
40996;DHT22;26723;57.478;12.066;2022-11-14T00:00:10;11.40;99.90
40996;DHT22;26723;57.478;12.066;2022-11-14T00:03:37;11.30;99.90
40996;DHT22;26723;57.478;12.066;2022-11-14T00:07:04;11.30;99.90
40996;DHT22;26723;57.478;12.066;2022-11-14T00:10:31;11.30;99.90
40996;DHT22;26723;57.478;12.066;2022-11-14T00:13:59;11.30;99.90
40996;DHT22;26723;57.478;12.066;2022-11-14T00:17:26;11.30;99.90
40996;DHT22;26723;57.478;12.066;2022-11-14T00:20:53;11.30;99.90
40996;DHT22;26723;57.478;12.066;2022-11-14T00:24:20;11.30;99.90
40996;DHT22;26723;57.478;12.066;2022-11-14T00:27:47;11.20;99.90
40996;DHT22;26723;57.478;12.066;2022-11-14T00:31:15;11.30;99.90
40996;DHT22;26723;57.478;12.066;2022-11-14T00:34:42;11.20;99.90
40996;DHT22;26723;57.478;12.066;2022-11-14T00:38:09;11.20;99.90
40996;DHT22;26723;57.478;12.066;2022-11-14T00:41:36;11.20;99.90
40996;DHT22;26723;57.478;12.066;2022-11-14T00:45:03;11.20;99.90
40996;DHT22;26723;57.478;12.066;2022-11-14T00:48:31;11.20;99.90
40996;DHT22;26723;57.478;12.066;2022-11-14T00:52:00;11.10;99.90
40996;DHT22;26723;57.478;12.066;2022-11-14T00:55:27;11.10;99.90
40996;DHT22;26723;57.478;12.066;2022-11-14T00:58:53;11.10;99.90
40996;DHT22;26723;57.478;12.066;2022-11-14T01:02:21;11.10;99.90
40996;DHT22;26723;57.478;12.066;2022-11-14T01:05:50;11.10;99.90
40996;DHT22;26723;57.478;12.066;2022-11-14T01:09:17;11.00;99.90
40996;DHT22;26723;57.478;12.066;2022-11-14T01:12:44;11.10;99.90
40996;DHT22;26723;57.478;12.066;2022-11-14T01:16:11;11.00;99.90
40996;DHT22;26723;57.478;12.066;2022-11-14T01:19:38;11.00;99.90
40996;DHT22;26723;57.478;12.066;2022-11-14T01:23:06;11.00;99.90
40996;DHT22;26723;57.478;12.066;2022-11-14T01:26:33;11.00;99.90
40996;DHT22;26723;57.478;12.066;2022-11-14T01:30:00;11.00;99.90
40996;DHT22;26723;57.478;12.066;2022-11-14T01:33:27;10.90;99.90
40996;DHT22;26723;57.478;12.066;2022-11-14T01:36:53;10.90;99.90
40996;DHT22;26723;57.478;12.066;2022-11-14T01:40:22;10.80;99.90
40996;DHT22;26723;57.478;12.066;2022-11-14T01:43:49;10.80;99.90
40996;DHT22;26723;57.478;12.066;2022-11-14T01:47:19;10.70;99.90
40996;DHT22;26723;57.478;12.066;2022-11-14T01:50:50;10.70;99.90
40996;DHT22;26723;57.478;12.066;2022-11-14T01:54:23;10.70;99.90
40996;DHT22;26723;57.478;12.066;2022-11-14T01:57:52;10.70;99.90
40996;DHT22;26723;57.478;12.066;2022-11-14T02:01:19;10.70;99.90
40996;DHT22;26723;57.478;12.066;2022-11-14T02:04:49;10.60;99.90
40996;DHT22;26723;57.478;12.066;2022-11-14T02:08:17;10.50;99.90
40996;DHT22;26723;57.478;12.066;2022-11-14T02:11:45;10.50;99.90
40996;DHT22;26723;57.478;12.066;2022-11-14T02:15:14;10.50;99.90
40996;DHT22;26723;57.478;12.066;2022-11-14T02:18:40;10.50;99.90
40996;DHT22;26723;57.478;12.066;2022-11-14T02:22:09;10.50;99.90
40996;DHT22;26723;57.478;12.066;2022-11-14T02:25:36;10.40;99.90
40996;DHT22;26723;57.478;12.066;2022-11-14T02:29:04;10.40;99.90
40996;DHT22;26723;57.478;12.066;2022-11-14T02:32:31;10.40;99.90
40996;DHT22;26723;57.478;12.066;2022-11-14T02:36:18;10.50;99.90
40996;DHT22;26723;57.478;12.066;2022-11-14T02:39:46;10.40;99.90
40996;DHT22;26723;57.478;12.066;2022-11-14T02:43:13;10.50;99.90
40996;DHT22;26723;57.478;12.066;2022-11-14T02:46:40;10.40;99.90
40996;DHT22;26723;57.478;12.066;2022-11-14T02:50:07;10.40;99.90
40996;DHT22;26723;57.478;12.066;2022-11-14T02:53:34;10.40;99.90
40996;DHT22;26723;57.478;12.066;2022-11-14T02:57:02;10.30;99.90
40996;DHT22;26723;57.478;12.066;2022-11-14T03:00:29;10.30;99.90
40996;DHT22;26723;57.478;12.066;2022-11-14T03:03:56;10.30;99.90
40996;DHT22;26723;57.478;12.066;2022-11-14T03:07:22;10.20;99.90
40996;DHT22;26723;57.478;12.066;2022-11-14T03:10:50;10.20;99.90
40996;DHT22;26723;57.478;12.066;2022-11-14T03:14:18;10.20;99.90
40996;DHT22;26723;57.478;12.066;2022-11-14T03:17:44;10.20;99.90
40996;DHT22;26723;57.478;12.066;2022-11-14T03:21:13;10.20;99.90
40996;DHT22;26723;57.478;12.066;2022-11-14T03:24:41;10.20;99.90
40996;DHT22;26723;57.478;12.066;2022-11-14T03:28:07;10.20;99.90
40996;DHT22;26723;57.478;12.066;2022-11-14T03:31:35;10.20;99.90
40996;DHT22;26723;57.478;12.066;2022-11-14T03:35:02;10.20;99.90
40996;DHT22;26723;57.478;12.066;2022-11-14T03:38:30;10.10;99.90
40996;DHT22;26723;57.478;12.066;2022-11-14T03:41:57;10.20;99.90
40996;DHT22;26723;57.478;12.066;2022-11-14T03:45:24;10.10;99.90
40996;DHT22;26723;57.478;12.066;2022-11-14T03:48:52;10.10;99.90
40996;DHT22;26723;57.478;12.066;2022-11-14T03:52:19;10.10;99.90
40996;DHT22;26723;57.478;12.066;2022-11-14T03:55:45;10.00;99.90
40996;DHT22;26723;57.478;12.066;2022-11-14T03:59:12;9.90;99.90
40996;DHT22;26723;57.478;12.066;2022-11-14T04:02:39;9.90;99.90
40996;DHT22;26723;57.478;12.066;2022-11-14T04:06:07;9.90;99.90
40996;DHT22;26723;57.478;12.066;2022-11-14T04:09:34;9.90;99.90
40996;DHT22;26723;57.478;12.066;2022-11-14T04:13:03;9.90;99.90
40996;DHT22;26723;57.478;12.066;2022-11-14T04:16:30;9.80;99.90
40996;DHT22;26723;57.478;12.066;2022-11-14T04:19:57;9.80;99.90
40996;DHT22;26723;57.478;12.066;2022-11-14T04:23:25;9.80;99.90
40996;DHT22;26723;57.478;12.066;2022-11-14T04:26:52;9.70;99.90
40996;DHT22;26723;57.478;12.066;2022-11-14T04:30:18;9.70;99.90
40996;DHT22;26723;57.478;12.066;2022-11-14T04:33:45;9.70;99.90
40996;DHT22;26723;57.478;12.066;2022-11-14T04:37:12;9.60;99.90
40996;DHT22;26723;57.478;12.066;2022-11-14T04:40:47;9.60;99.90
40996;DHT22;26723;57.478;12.066;2022-11-14T04:44:14;9.60;99.90
40996;DHT22;26723;57.478;12.066;2022-11-14T04:47:41;9.60;99.90
40996;DHT22;26723;57.478;12.066;2022-11-14T04:51:08;9.60;99.90
40996;DHT22;26723;57.478;12.066;2022-11-14T04:54:34;9.60;99.90
40996;DHT22;26723;57.478;12.066;2022-11-14T04:58:02;9.60;99.90
40996;DHT22;26723;57.478;12.066;2022-11-14T05:01:29;9.50;99.90
40996;DHT22;26723;57.478;12.066;2022-11-14T05:04:56;9.50;99.90
40996;DHT22;26723;57.478;12.066;2022-11-14T05:08:23;9.50;99.90
40996;DHT22;26723;57.478;12.066;2022-11-14T05:11:50;9.50;99.90
40996;DHT22;26723;57.478;12.066;2022-11-14T05:15:18;9.50;99.90
40996;DHT22;26723;57.478;12.066;2022-11-14T05:18:45;9.50;99.90
40996;DHT22;26723;57.478;12.066;2022-11-14T05:22:12;9.40;99.90
40996;DHT22;26723;57.478;12.066;2022-11-14T05:25:38;9.40;99.90
40996;DHT22;26723;57.478;12.066;2022-11-14T05:29:05;9.40;99.90
40996;DHT22;26723;57.478;12.066;2022-11-14T05:32:34;9.30;99.90
40996;DHT22;26723;57.478;12.066;2022-11-14T05:36:02;9.30;99.90
40996;DHT22;26723;57.478;12.066;2022-11-14T05:39:29;9.30;99.90
40996;DHT22;26723;57.478;12.066;2022-11-14T05:42:56;9.20;99.90
40996;DHT22;26723;57.478;12.066;2022-11-14T05:46:23;9.20;99.90
40996;DHT22;26723;57.478;12.066;2022-11-14T05:49:51;9.20;99.90
40996;DHT22;26723;57.478;12.066;2022-11-14T05:53:18;9.10;99.90
40996;DHT22;26723;57.478;12.066;2022-11-14T05:56:45;9.10;99.90
40996;DHT22;26723;57.478;12.066;2022-11-14T06:00:13;9.20;99.90
40996;DHT22;26723;57.478;12.066;2022-11-14T06:03:42;9.10;99.90
40996;DHT22;26723;57.478;12.066;2022-11-14T06:07:10;9.10;99.90
40996;DHT22;26723;57.478;12.066;2022-11-14T06:10:44;9.00;99.90
40996;DHT22;26723;57.478;12.066;2022-11-14T06:14:11;9.00;99.90
40996;DHT22;26723;57.478;12.066;2022-11-14T06:17:38;9.00;99.90
40996;DHT22;26723;57.478;12.066;2022-11-14T06:21:06;8.90;99.90
40996;DHT22;26723;57.478;12.066;2022-11-14T06:24:35;8.90;99.90
40996;DHT22;26723;57.478;12.066;2022-11-14T06:28:02;8.90;99.90
40996;DHT22;26723;57.478;12.066;2022-11-14T06:31:29;8.90;99.90
40996;DHT22;26723;57.478;12.066;2022-11-14T06:34:56;8.90;99.90
40996;DHT22;26723;57.478;12.066;2022-11-14T06:38:23;8.80;99.90
40996;DHT22;26723;57.478;12.066;2022-11-14T06:41:51;8.80;99.90
40996;DHT22;26723;57.478;12.066;2022-11-14T06:45:18;8.90;99.90
40996;DHT22;26723;57.478;12.066;2022-11-14T06:48:46;8.80;99.90
40996;DHT22;26723;57.478;12.066;2022-11-14T06:52:13;8.70;99.90
40996;DHT22;26723;57.478;12.066;2022-11-14T06:55:39;8.70;99.90
40996;DHT22;26723;57.478;12.066;2022-11-14T06:59:08;8.70;99.90
40996;DHT22;26723;57.478;12.066;2022-11-14T07:02:35;8.70;99.90
40996;DHT22;26723;57.478;12.066;2022-11-14T07:06:03;8.80;99.90
40996;DHT22;26723;57.478;12.066;2022-11-14T07:09:30;8.80;99.90
40996;DHT22;26723;57.478;12.066;2022-11-14T07:12:57;8.80;99.90
40996;DHT22;26723;57.478;12.066;2022-11-14T07:16:26;8.80;99.90
40996;DHT22;26723;57.478;12.066;2022-11-14T07:19:54;8.80;99.90
40996;DHT22;26723;57.478;12.066;2022-11-14T07:23:21;8.90;99.90
40996;DHT22;26723;57.478;12.066;2022-11-14T07:26:48;8.80;99.90
40996;DHT22;26723;57.478;12.066;2022-11-14T07:30:15;8.80;99.90
40996;DHT22;26723;57.478;12.066;2022-11-14T07:33:44;8.80;99.90
40996;DHT22;26723;57.478;12.066;2022-11-14T07:37:11;8.70;99.90
40996;DHT22;26723;57.478;12.066;2022-11-14T07:40:38;8.80;99.90
40996;DHT22;26723;57.478;12.066;2022-11-14T07:44:05;8.80;99.90
40996;DHT22;26723;57.478;12.066;2022-11-14T07:47:32;8.90;99.90
40996;DHT22;26723;57.478;12.066;2022-11-14T07:51:00;8.80;99.90
40996;DHT22;26723;57.478;12.066;2022-11-14T07:54:27;8.90;99.90
40996;DHT22;26723;57.478;12.066;2022-11-14T07:57:57;9.00;99.90
40996;DHT22;26723;57.478;12.066;2022-11-14T08:01:24;8.90;99.90
40996;DHT22;26723;57.478;12.066;2022-11-14T08:04:51;8.90;99.90
40996;DHT22;26723;57.478;12.066;2022-11-14T08:08:19;8.90;99.90
40996;DHT22;26723;57.478;12.066;2022-11-14T08:11:46;8.90;99.90
40996;DHT22;26723;57.478;12.066;2022-11-14T08:15:15;9.00;99.90
40996;DHT22;26723;57.478;12.066;2022-11-14T08:18:42;9.00;99.90
40996;DHT22;26723;57.478;12.066;2022-11-14T08:22:09;9.00;99.90
40996;DHT22;26723;57.478;12.066;2022-11-14T08:25:37;9.00;99.90
40996;DHT22;26723;57.478;12.066;2022-11-14T08:29:04;9.10;99.90
40996;DHT22;26723;57.478;12.066;2022-11-14T08:32:30;9.10;99.90
40996;DHT22;26723;57.478;12.066;2022-11-14T08:35:59;9.10;99.90
40996;DHT22;26723;57.478;12.066;2022-11-14T08:39:27;9.00;99.90
40996;DHT22;26723;57.478;12.066;2022-11-14T08:42:59;9.10;99.90
40996;DHT22;26723;57.478;12.066;2022-11-14T08:46:26;9.10;99.90
40996;DHT22;26723;57.478;12.066;2022-11-14T08:49:53;9.10;99.90
40996;DHT22;26723;57.478;12.066;2022-11-14T08:53:20;9.10;99.90
40996;DHT22;26723;57.478;12.066;2022-11-14T08:56:48;9.10;99.90
40996;DHT22;26723;57.478;12.066;2022-11-14T09:00:16;9.10;99.90
40996;DHT22;26723;57.478;12.066;2022-11-14T09:03:43;9.10;99.90
40996;DHT22;26723;57.478;12.066;2022-11-14T09:07:10;9.20;99.90
40996;DHT22;26723;57.478;12.066;2022-11-14T09:10:37;9.20;99.90
40996;DHT22;26723;57.478;12.066;2022-11-14T09:14:04;9.20;99.90
40996;DHT22;26723;57.478;12.066;2022-11-14T09:17:32;9.30;99.90
40996;DHT22;26723;57.478;12.066;2022-11-14T09:21:00;9.30;99.90
40996;DHT22;26723;57.478;12.066;2022-11-14T09:24:27;9.30;99.90
40996;DHT22;26723;57.478;12.066;2022-11-14T09:27:55;9.40;99.90
40996;DHT22;26723;57.478;12.066;2022-11-14T09:31:21;9.30;99.90
40996;DHT22;26723;57.478;12.066;2022-11-14T09:34:49;9.30;99.90
40996;DHT22;26723;57.478;12.066;2022-11-14T09:38:16;9.40;99.90
40996;DHT22;26723;57.478;12.066;2022-11-14T09:41:53;9.40;99.90
40996;DHT22;26723;57.478;12.066;2022-11-14T09:45:23;9.40;99.90
40996;DHT22;26723;57.478;12.066;2022-11-14T09:48:51;9.40;99.90
40996;DHT22;26723;57.478;12.066;2022-11-14T09:52:27;9.40;99.90
40996;DHT22;26723;57.478;12.066;2022-11-14T09:55:57;9.50;99.90
40996;DHT22;26723;57.478;12.066;2022-11-14T09:59:24;9.50;99.90
40996;DHT22;26723;57.478;12.066;2022-11-14T10:03:02;9.50;99.90
40996;DHT22;26723;57.478;12.066;2022-11-14T10:06:34;9.60;99.90
40996;DHT22;26723;57.478;12.066;2022-11-14T10:10:15;9.60;99.90
40996;DHT22;26723;57.478;12.066;2022-11-14T10:13:57;9.60;99.90
40996;DHT22;26723;57.478;12.066;2022-11-14T10:17:56;9.60;99.90
40996;DHT22;26723;57.478;12.066;2022-11-14T10:21:45;9.70;99.90
40996;DHT22;26723;57.478;12.066;2022-11-14T10:25:23;9.70;99.90
40996;DHT22;26723;57.478;12.066;2022-11-14T10:29:04;9.70;99.90
40996;DHT22;26723;57.478;12.066;2022-11-14T10:32:53;9.70;99.90
40996;DHT22;26723;57.478;12.066;2022-11-14T10:36:39;9.70;99.90
40996;DHT22;26723;57.478;12.066;2022-11-14T10:40:15;9.70;99.90
40996;DHT22;26723;57.478;12.066;2022-11-14T10:43:46;9.70;99.90
40996;DHT22;26723;57.478;12.066;2022-11-14T10:47:15;9.60;99.90
40996;DHT22;26723;57.478;12.066;2022-11-14T10:50:48;9.60;99.90
40996;DHT22;26723;57.478;12.066;2022-11-14T10:54:21;9.60;99.90
40996;DHT22;26723;57.478;12.066;2022-11-14T10:57:49;9.70;99.90
40996;DHT22;26723;57.478;12.066;2022-11-14T11:01:39;9.70;99.90
40996;DHT22;26723;57.478;12.066;2022-11-14T11:05:13;9.80;99.90
40996;DHT22;26723;57.478;12.066;2022-11-14T11:08:41;9.80;99.90
40996;DHT22;26723;57.478;12.066;2022-11-14T11:12:40;9.70;99.90
40996;DHT22;26723;57.478;12.066;2022-11-14T11:16:10;9.70;99.90
40996;DHT22;26723;57.478;12.066;2022-11-14T11:19:38;9.70;99.90
40996;DHT22;26723;57.478;12.066;2022-11-14T11:23:16;9.80;99.90
40996;DHT22;26723;57.478;12.066;2022-11-14T11:26:43;9.80;99.90
40996;DHT22;26723;57.478;12.066;2022-11-14T11:30:21;9.80;99.90
40996;DHT22;26723;57.478;12.066;2022-11-14T11:33:48;9.80;99.90
40996;DHT22;26723;57.478;12.066;2022-11-14T11:37:19;9.80;99.90
40996;DHT22;26723;57.478;12.066;2022-11-14T11:40:50;9.80;99.90
40996;DHT22;26723;57.478;12.066;2022-11-14T11:44:19;9.90;99.90
40996;DHT22;26723;57.478;12.066;2022-11-14T11:47:52;9.90;99.90
40996;DHT22;26723;57.478;12.066;2022-11-14T11:51:23;9.90;99.90
40996;DHT22;26723;57.478;12.066;2022-11-14T11:54:57;9.90;99.90
40996;DHT22;26723;57.478;12.066;2022-11-14T11:58:27;9.90;99.90
40996;DHT22;26723;57.478;12.066;2022-11-14T12:02:12;9.90;99.90
40996;DHT22;26723;57.478;12.066;2022-11-14T12:05:50;9.90;99.90
40996;DHT22;26723;57.478;12.066;2022-11-14T12:09:24;9.80;99.90
40996;DHT22;26723;57.478;12.066;2022-11-14T12:13:44;9.90;99.90
40996;DHT22;26723;57.478;12.066;2022-11-14T12:21:33;9.80;99.90
40996;DHT22;26723;57.478;12.066;2022-11-14T12:25:26;9.80;99.90
40996;DHT22;26723;57.478;12.066;2022-11-14T12:29:13;9.80;99.90
40996;DHT22;26723;57.478;12.066;2022-11-14T12:32:52;9.80;99.90
40996;DHT22;26723;57.478;12.066;2022-11-14T12:36:26;9.80;99.90
40996;DHT22;26723;57.478;12.066;2022-11-14T12:39:56;9.80;99.90
40996;DHT22;26723;57.478;12.066;2022-11-14T12:43:31;9.80;99.90
40996;DHT22;26723;57.478;12.066;2022-11-14T12:47:16;9.80;99.90
40996;DHT22;26723;57.478;12.066;2022-11-14T12:50:44;9.80;99.90
40996;DHT22;26723;57.478;12.066;2022-11-14T12:54:41;9.80;99.90
40996;DHT22;26723;57.478;12.066;2022-11-14T12:58:09;9.90;99.90
40996;DHT22;26723;57.478;12.066;2022-11-14T13:01:46;9.80;99.90
40996;DHT22;26723;57.478;12.066;2022-11-14T13:05:27;9.80;99.90
40996;DHT22;26723;57.478;12.066;2022-11-14T13:09:29;9.80;99.90
40996;DHT22;26723;57.478;12.066;2022-11-14T13:13:05;9.80;99.90
40996;DHT22;26723;57.478;12.066;2022-11-14T13:16:50;9.80;99.90
40996;DHT22;26723;57.478;12.066;2022-11-14T13:20:44;9.80;99.90
40996;DHT22;26723;57.478;12.066;2022-11-14T13:25:15;9.80;99.90
40996;DHT22;26723;57.478;12.066;2022-11-14T13:28:47;9.80;99.90
40996;DHT22;26723;57.478;12.066;2022-11-14T13:36:37;9.80;99.90
40996;DHT22;26723;57.478;12.066;2022-11-14T13:40:10;9.90;99.90
40996;DHT22;26723;57.478;12.066;2022-11-14T13:43:54;9.90;99.90
40996;DHT22;26723;57.478;12.066;2022-11-14T13:51:18;9.90;99.90
40996;DHT22;26723;57.478;12.066;2022-11-14T13:55:18;9.90;99.90
40996;DHT22;26723;57.478;12.066;2022-11-14T13:58:57;9.90;99.90
40996;DHT22;26723;57.478;12.066;2022-11-14T14:02:52;9.90;99.90
40996;DHT22;26723;57.478;12.066;2022-11-14T14:06:30;9.90;99.90
40996;DHT22;26723;57.478;12.066;2022-11-14T14:10:04;9.80;99.90
40996;DHT22;26723;57.478;12.066;2022-11-14T14:13:44;9.90;99.90
40996;DHT22;26723;57.478;12.066;2022-11-14T14:17:23;9.90;99.90
40996;DHT22;26723;57.478;12.066;2022-11-14T14:21:00;9.90;99.90
40996;DHT22;26723;57.478;12.066;2022-11-14T14:24:44;9.90;99.90
40996;DHT22;26723;57.478;12.066;2022-11-14T14:28:20;9.90;99.90
40996;DHT22;26723;57.478;12.066;2022-11-14T14:31:51;9.90;99.90
40996;DHT22;26723;57.478;12.066;2022-11-14T14:35:22;9.90;99.90
40996;DHT22;26723;57.478;12.066;2022-11-14T14:38:50;9.90;99.90
40996;DHT22;26723;57.478;12.066;2022-11-14T14:42:37;9.90;99.90
40996;DHT22;26723;57.478;12.066;2022-11-14T14:46:04;9.90;99.90
40996;DHT22;26723;57.478;12.066;2022-11-14T14:49:35;9.90;99.90
40996;DHT22;26723;57.478;12.066;2022-11-14T14:53:03;9.80;99.90
40996;DHT22;26723;57.478;12.066;2022-11-14T14:56:30;9.80;99.90
40996;DHT22;26723;57.478;12.066;2022-11-14T14:59:58;9.80;99.90
40996;DHT22;26723;57.478;12.066;2022-11-14T15:03:28;9.80;99.90
40996;DHT22;26723;57.478;12.066;2022-11-14T15:07:03;9.80;99.90
40996;DHT22;26723;57.478;12.066;2022-11-14T15:10:30;9.80;99.90
40996;DHT22;26723;57.478;12.066;2022-11-14T15:13:58;9.80;99.90
40996;DHT22;26723;57.478;12.066;2022-11-14T15:17:26;9.80;99.90
40996;DHT22;26723;57.478;12.066;2022-11-14T15:21:12;9.80;99.90
40996;DHT22;26723;57.478;12.066;2022-11-14T15:24:41;9.80;99.90
40996;DHT22;26723;57.478;12.066;2022-11-14T15:28:15;9.80;99.90
40996;DHT22;26723;57.478;12.066;2022-11-14T15:31:46;9.80;99.90
40996;DHT22;26723;57.478;12.066;2022-11-14T15:35:26;9.80;99.90
40996;DHT22;26723;57.478;12.066;2022-11-14T15:39:01;9.80;99.90
40996;DHT22;26723;57.478;12.066;2022-11-14T15:42:30;9.80;99.90
40996;DHT22;26723;57.478;12.066;2022-11-14T15:45:56;9.80;99.90
40996;DHT22;26723;57.478;12.066;2022-11-14T15:49:25;9.80;99.90
40996;DHT22;26723;57.478;12.066;2022-11-14T15:52:55;9.70;99.90
40996;DHT22;26723;57.478;12.066;2022-11-14T15:56:24;9.70;99.90
40996;DHT22;26723;57.478;12.066;2022-11-14T15:59:55;9.70;99.90
40996;DHT22;26723;57.478;12.066;2022-11-14T16:03:21;9.80;99.90
40996;DHT22;26723;57.478;12.066;2022-11-14T16:06:49;9.80;99.90
40996;DHT22;26723;57.478;12.066;2022-11-14T16:10:18;9.80;99.90
40996;DHT22;26723;57.478;12.066;2022-11-14T16:13:45;9.80;99.90
40996;DHT22;26723;57.478;12.066;2022-11-14T16:17:14;9.80;99.90
40996;DHT22;26723;57.478;12.066;2022-11-14T16:20:42;9.80;99.90
40996;DHT22;26723;57.478;12.066;2022-11-14T16:24:13;9.80;99.90
40996;DHT22;26723;57.478;12.066;2022-11-14T16:27:41;9.80;99.90
40996;DHT22;26723;57.478;12.066;2022-11-14T16:31:10;9.80;99.90
40996;DHT22;26723;57.478;12.066;2022-11-14T16:34:38;9.70;99.90
40996;DHT22;26723;57.478;12.066;2022-11-14T16:38:05;9.80;99.90
40996;DHT22;26723;57.478;12.066;2022-11-14T16:41:32;9.70;99.90
40996;DHT22;26723;57.478;12.066;2022-11-14T16:44:59;9.80;99.90
40996;DHT22;26723;57.478;12.066;2022-11-14T16:48:27;9.80;99.90
40996;DHT22;26723;57.478;12.066;2022-11-14T16:51:55;9.70;99.90
40996;DHT22;26723;57.478;12.066;2022-11-14T16:55:22;9.80;99.90
40996;DHT22;26723;57.478;12.066;2022-11-14T16:58:53;9.80;99.90
40996;DHT22;26723;57.478;12.066;2022-11-14T17:02:19;9.70;99.90
40996;DHT22;26723;57.478;12.066;2022-11-14T17:05:48;9.70;99.90
40996;DHT22;26723;57.478;12.066;2022-11-14T17:09:16;9.70;99.90
40996;DHT22;26723;57.478;12.066;2022-11-14T17:12:43;9.70;99.90
40996;DHT22;26723;57.478;12.066;2022-11-14T17:16:10;9.70;99.90
40996;DHT22;26723;57.478;12.066;2022-11-14T17:19:37;9.70;99.90
40996;DHT22;26723;57.478;12.066;2022-11-14T17:23:10;9.70;99.90
40996;DHT22;26723;57.478;12.066;2022-11-14T17:26:38;9.70;99.90
40996;DHT22;26723;57.478;12.066;2022-11-14T17:30:10;9.70;99.90
40996;DHT22;26723;57.478;12.066;2022-11-14T17:33:37;9.70;99.90
40996;DHT22;26723;57.478;12.066;2022-11-14T17:37:04;9.70;99.90
40996;DHT22;26723;57.478;12.066;2022-11-14T17:40:30;9.70;99.90
40996;DHT22;26723;57.478;12.066;2022-11-14T17:43:59;9.70;99.90
40996;DHT22;26723;57.478;12.066;2022-11-14T17:47:26;9.70;99.90
40996;DHT22;26723;57.478;12.066;2022-11-14T17:50:53;9.70;99.90
40996;DHT22;26723;57.478;12.066;2022-11-14T17:54:20;9.70;99.90
40996;DHT22;26723;57.478;12.066;2022-11-14T17:57:47;9.70;99.90
40996;DHT22;26723;57.478;12.066;2022-11-14T18:01:17;9.70;99.90
40996;DHT22;26723;57.478;12.066;2022-11-14T18:04:44;9.70;99.90
40996;DHT22;26723;57.478;12.066;2022-11-14T18:08:12;9.70;99.90
40996;DHT22;26723;57.478;12.066;2022-11-14T18:11:39;9.70;99.90
40996;DHT22;26723;57.478;12.066;2022-11-14T18:15:06;9.70;99.90
40996;DHT22;26723;57.478;12.066;2022-11-14T18:18:35;9.70;99.90
40996;DHT22;26723;57.478;12.066;2022-11-14T18:22:02;9.70;99.90
40996;DHT22;26723;57.478;12.066;2022-11-14T18:25:29;9.70;99.90
40996;DHT22;26723;57.478;12.066;2022-11-14T18:28:57;9.70;99.90
40996;DHT22;26723;57.478;12.066;2022-11-14T18:32:25;9.70;99.90
40996;DHT22;26723;57.478;12.066;2022-11-14T18:35:57;9.60;99.90
40996;DHT22;26723;57.478;12.066;2022-11-14T18:39:24;9.70;99.90
40996;DHT22;26723;57.478;12.066;2022-11-14T18:42:53;9.60;99.90
40996;DHT22;26723;57.478;12.066;2022-11-14T18:46:21;9.60;99.90
40996;DHT22;26723;57.478;12.066;2022-11-14T18:49:49;9.60;99.90
40996;DHT22;26723;57.478;12.066;2022-11-14T18:53:17;9.60;99.90
40996;DHT22;26723;57.478;12.066;2022-11-14T18:56:44;9.60;99.90
40996;DHT22;26723;57.478;12.066;2022-11-14T19:00:12;9.50;99.90
40996;DHT22;26723;57.478;12.066;2022-11-14T19:03:40;9.50;99.90
40996;DHT22;26723;57.478;12.066;2022-11-14T19:07:06;9.60;99.90
40996;DHT22;26723;57.478;12.066;2022-11-14T19:10:41;9.60;99.90
40996;DHT22;26723;57.478;12.066;2022-11-14T19:14:08;9.60;99.90
40996;DHT22;26723;57.478;12.066;2022-11-14T19:17:35;9.60;99.90
40996;DHT22;26723;57.478;12.066;2022-11-14T19:21:02;9.60;99.90
40996;DHT22;26723;57.478;12.066;2022-11-14T19:24:30;9.50;99.90
40996;DHT22;26723;57.478;12.066;2022-11-14T19:27:59;9.50;99.90
40996;DHT22;26723;57.478;12.066;2022-11-14T19:31:26;9.50;99.90
40996;DHT22;26723;57.478;12.066;2022-11-14T19:34:53;9.50;99.90
40996;DHT22;26723;57.478;12.066;2022-11-14T19:38:20;9.50;99.90
40996;DHT22;26723;57.478;12.066;2022-11-14T19:41:47;9.40;99.90
40996;DHT22;26723;57.478;12.066;2022-11-14T19:45:18;9.40;99.90
40996;DHT22;26723;57.478;12.066;2022-11-14T19:48:45;9.40;99.90
40996;DHT22;26723;57.478;12.066;2022-11-14T19:52:12;9.40;99.90
40996;DHT22;26723;57.478;12.066;2022-11-14T19:55:42;9.40;99.90
40996;DHT22;26723;57.478;12.066;2022-11-14T19:59:10;9.40;99.90
40996;DHT22;26723;57.478;12.066;2022-11-14T20:02:45;9.40;99.90
40996;DHT22;26723;57.478;12.066;2022-11-14T20:06:14;9.40;99.90
40996;DHT22;26723;57.478;12.066;2022-11-14T20:09:40;9.40;99.90
40996;DHT22;26723;57.478;12.066;2022-11-14T20:13:10;9.40;99.90
40996;DHT22;26723;57.478;12.066;2022-11-14T20:16:37;9.40;99.90
40996;DHT22;26723;57.478;12.066;2022-11-14T20:20:06;9.40;99.90
40996;DHT22;26723;57.478;12.066;2022-11-14T20:23:34;9.40;99.90
40996;DHT22;26723;57.478;12.066;2022-11-14T20:27:01;9.40;99.90
40996;DHT22;26723;57.478;12.066;2022-11-14T20:30:28;9.40;99.90
40996;DHT22;26723;57.478;12.066;2022-11-14T20:33:55;9.40;99.90
40996;DHT22;26723;57.478;12.066;2022-11-14T20:37:24;9.40;99.90
40996;DHT22;26723;57.478;12.066;2022-11-14T20:40:55;9.40;99.90
40996;DHT22;26723;57.478;12.066;2022-11-14T20:44:22;9.30;99.90
40996;DHT22;26723;57.478;12.066;2022-11-14T20:47:49;9.40;99.90
40996;DHT22;26723;57.478;12.066;2022-11-14T20:51:17;9.40;99.90
40996;DHT22;26723;57.478;12.066;2022-11-14T20:54:46;9.30;99.90
40996;DHT22;26723;57.478;12.066;2022-11-14T20:58:13;9.40;99.90
40996;DHT22;26723;57.478;12.066;2022-11-14T21:01:41;9.40;99.90
40996;DHT22;26723;57.478;12.066;2022-11-14T21:05:08;9.40;99.90
40996;DHT22;26723;57.478;12.066;2022-11-14T21:08:36;9.40;99.90
40996;DHT22;26723;57.478;12.066;2022-11-14T21:12:05;9.40;99.90
40996;DHT22;26723;57.478;12.066;2022-11-14T21:15:33;9.40;99.90
40996;DHT22;26723;57.478;12.066;2022-11-14T21:19:03;9.30;99.90
40996;DHT22;26723;57.478;12.066;2022-11-14T21:22:31;9.30;99.90
40996;DHT22;26723;57.478;12.066;2022-11-14T21:26:02;9.40;99.90
40996;DHT22;26723;57.478;12.066;2022-11-14T21:29:31;9.30;99.90
40996;DHT22;26723;57.478;12.066;2022-11-14T21:32:58;9.30;99.90
40996;DHT22;26723;57.478;12.066;2022-11-14T21:36:26;9.30;99.90
40996;DHT22;26723;57.478;12.066;2022-11-14T21:40:11;9.30;99.90
40996;DHT22;26723;57.478;12.066;2022-11-14T21:43:38;9.30;99.90
40996;DHT22;26723;57.478;12.066;2022-11-14T21:47:06;9.30;99.90
40996;DHT22;26723;57.478;12.066;2022-11-14T21:50:33;9.30;99.90
40996;DHT22;26723;57.478;12.066;2022-11-14T21:54:00;9.30;99.90
40996;DHT22;26723;57.478;12.066;2022-11-14T21:57:27;9.30;99.90
40996;DHT22;26723;57.478;12.066;2022-11-14T22:00:53;9.30;99.90
40996;DHT22;26723;57.478;12.066;2022-11-14T22:04:21;9.30;99.90
40996;DHT22;26723;57.478;12.066;2022-11-14T22:07:47;9.30;99.90
40996;DHT22;26723;57.478;12.066;2022-11-14T22:11:15;9.20;99.90
40996;DHT22;26723;57.478;12.066;2022-11-14T22:14:42;9.20;99.90